createdAt,value
2017-10-04T00:00:14.253Z,4.30
2017-10-04T00:02:40.829Z,3.90
2017-10-04T00:05:13.441Z,4.50
2017-10-04T00:07:40.019Z,4.40
2017-10-04T00:10:06.602Z,4.10
2017-10-04T00:12:33.322Z,4.10
2017-10-04T00:14:59.896Z,4.13
2017-10-04T00:17:26.471Z,4.10
2017-10-04T00:19:53.084Z,4.53
2017-10-04T00:22:19.665Z,4.20
2017-10-04T00:24:46.241Z,4.00
2017-10-04T00:27:12.828Z,3.80
2017-10-04T00:29:39.405Z,4.50
2017-10-04T00:32:05.985Z,3.90
2017-10-04T00:34:32.717Z,4.40
2017-10-04T00:36:59.297Z,4.10
2017-10-04T00:39:25.892Z,4.07
2017-10-04T00:41:52.486Z,4.10
2017-10-04T00:44:19.070Z,4.13
2017-10-04T00:46:45.649Z,4.63
2017-10-04T00:49:12.380Z,3.87
2017-10-04T00:51:38.948Z,3.83
2017-10-04T00:54:05.525Z,4.10
2017-10-04T00:56:32.112Z,3.77
2017-10-04T00:58:58.684Z,4.10
2017-10-04T01:01:25.278Z,4.00
2017-10-04T01:03:51.861Z,4.00
2017-10-04T01:06:18.444Z,4.50
2017-10-04T01:08:45.026Z,3.40
2017-10-04T01:11:11.612Z,3.50
2017-10-04T01:13:38.189Z,3.53
2017-10-04T01:16:04.769Z,3.57
2017-10-04T01:18:31.377Z,3.80
2017-10-04T01:20:57.945Z,3.80
2017-10-04T01:23:24.521Z,3.50
2017-10-04T01:25:51.252Z,3.60
2017-10-04T01:28:17.829Z,3.83
2017-10-04T01:30:44.404Z,3.30
2017-10-04T01:33:10.992Z,3.63
2017-10-04T01:35:37.573Z,4.87
2017-10-04T01:38:04.176Z,3.70
2017-10-04T01:40:30.891Z,3.23
2017-10-04T01:42:57.457Z,3.33
2017-10-04T01:45:24.034Z,3.57
2017-10-04T01:47:50.634Z,3.50
2017-10-04T01:50:17.209Z,3.57
2017-10-04T01:52:43.788Z,3.90
2017-10-04T01:55:10.369Z,3.50
2017-10-04T01:57:36.957Z,3.17
2017-10-04T02:00:03.524Z,3.50
2017-10-04T02:02:30.116Z,3.47
2017-10-04T02:04:56.688Z,2.97
2017-10-04T02:07:23.276Z,3.47
2017-10-04T02:09:50.009Z,3.27
2017-10-04T02:12:16.617Z,4.03
2017-10-04T02:14:43.207Z,3.30
2017-10-04T02:17:09.796Z,3.70
2017-10-04T02:19:36.373Z,3.20
2017-10-04T02:22:02.950Z,3.43
2017-10-04T02:24:29.552Z,3.47
2017-10-04T02:26:56.121Z,3.43
2017-10-04T02:29:22.701Z,3.37
2017-10-04T02:31:49.586Z,3.33
2017-10-04T02:34:16.186Z,3.60
2017-10-04T02:36:42.761Z,3.40
2017-10-04T02:39:09.345Z,3.23
2017-10-04T02:41:35.925Z,3.10
2017-10-04T02:44:02.503Z,3.60
2017-10-04T02:46:29.089Z,3.00
2017-10-04T02:48:55.670Z,3.47
2017-10-04T02:51:22.273Z,4.13
2017-10-04T02:53:48.996Z,3.50
2017-10-04T02:56:15.565Z,3.30
2017-10-04T02:58:42.164Z,4.17
2017-10-04T03:01:09.057Z,3.57
2017-10-04T03:03:35.628Z,3.13
2017-10-04T03:06:02.205Z,3.33
2017-10-04T03:08:28.788Z,3.47
2017-10-04T03:10:55.369Z,3.10
2017-10-04T03:13:21.957Z,3.30
2017-10-04T03:15:48.537Z,3.57
2017-10-04T03:18:15.112Z,3.30
2017-10-04T03:20:41.685Z,3.17
2017-10-04T03:23:08.728Z,3.73
2017-10-04T03:25:35.313Z,3.00
2017-10-04T03:28:01.894Z,3.30
2017-10-04T03:30:28.621Z,3.40
2017-10-04T03:32:55.213Z,3.70
2017-10-04T03:35:21.787Z,3.27
2017-10-04T03:37:48.406Z,3.50
2017-10-04T03:40:14.973Z,3.33
2017-10-04T03:42:41.545Z,3.53
2017-10-04T03:45:08.128Z,2.90
2017-10-04T03:47:34.701Z,3.40
2017-10-04T03:50:01.322Z,3.60
2017-10-04T03:52:27.906Z,3.13
2017-10-04T03:54:54.481Z,3.03
2017-10-04T03:57:21.081Z,3.20
2017-10-04T03:59:47.669Z,3.00
2017-10-04T04:02:14.245Z,3.70
2017-10-04T04:04:40.817Z,3.10
2017-10-04T04:07:07.549Z,3.30
2017-10-04T04:09:34.120Z,2.80
2017-10-04T04:12:00.688Z,2.80
2017-10-04T04:14:27.421Z,3.00
2017-10-04T04:16:53.988Z,3.60
2017-10-04T04:19:20.565Z,4.67
2017-10-04T04:21:47.157Z,3.23
2017-10-04T04:24:13.769Z,3.30
2017-10-04T04:26:40.352Z,3.77
2017-10-04T04:29:06.958Z,3.57
2017-10-04T04:31:33.529Z,3.87
2017-10-04T04:34:00.126Z,4.00
2017-10-04T04:36:26.713Z,4.73
2017-10-04T04:38:59.049Z,4.70
2017-10-04T04:41:25.621Z,4.70
2017-10-04T04:43:52.221Z,4.70
2017-10-04T04:46:18.797Z,4.90
2017-10-04T04:48:45.437Z,4.00
2017-10-04T04:51:12.100Z,4.50
2017-10-04T04:53:38.680Z,4.70
2017-10-04T04:56:05.253Z,4.50
2017-10-04T04:58:31.842Z,4.70
2017-10-04T05:00:58.430Z,5.07
2017-10-04T05:03:24.997Z,5.20
2017-10-04T05:05:51.593Z,5.73
2017-10-04T05:08:18.172Z,5.43
2017-10-04T05:10:44.751Z,5.27
2017-10-04T05:13:11.333Z,4.93
2017-10-04T05:15:37.905Z,4.97
2017-10-04T05:18:04.476Z,4.73
2017-10-04T05:20:39.664Z,4.97
2017-10-04T05:23:06.236Z,5.23
2017-10-04T05:25:32.864Z,5.80
2017-10-04T05:27:59.544Z,5.33
2017-10-04T05:30:26.147Z,6.00
2017-10-04T05:32:52.717Z,5.90
2017-10-04T05:35:20.110Z,5.83
2017-10-04T05:37:46.673Z,5.63
2017-10-04T05:40:13.244Z,6.40
2017-10-04T05:42:39.936Z,6.13
2017-10-04T05:45:06.516Z,6.23
2017-10-04T05:47:33.090Z,6.33
2017-10-04T05:49:59.685Z,5.60
2017-10-04T05:52:26.260Z,6.67
2017-10-04T05:54:52.842Z,6.30
2017-10-04T05:57:19.598Z,6.73
2017-10-04T05:59:46.153Z,5.97
2017-10-04T06:02:12.730Z,5.70
2017-10-04T06:04:39.309Z,5.73
2017-10-04T06:07:05.889Z,6.40
2017-10-04T06:09:32.471Z,5.80
2017-10-04T06:11:59.202Z,6.50
2017-10-04T06:14:25.785Z,6.30
2017-10-04T06:16:52.360Z,6.23
2017-10-04T06:19:19.109Z,5.87
2017-10-04T06:21:45.685Z,6.07
2017-10-04T06:24:12.271Z,5.93
2017-10-04T06:26:38.956Z,6.53
2017-10-04T06:29:05.533Z,6.30
2017-10-04T06:31:32.105Z,6.13
2017-10-04T06:33:58.692Z,6.60
2017-10-04T06:36:25.269Z,7.20
2017-10-04T06:38:51.844Z,6.60
2017-10-04T06:41:18.501Z,7.03
2017-10-04T06:43:45.081Z,7.27
2017-10-04T06:46:11.664Z,6.60
2017-10-04T06:48:38.480Z,6.67
2017-10-04T06:51:07.865Z,6.97
2017-10-04T06:53:34.445Z,6.40
2017-10-04T06:56:01.180Z,6.03
2017-10-04T06:58:27.761Z,6.27
2017-10-04T07:00:57.080Z,5.50
2017-10-04T07:03:23.729Z,5.63
2017-10-04T07:05:50.305Z,5.70
2017-10-04T07:08:16.884Z,4.90
2017-10-04T07:10:43.888Z,4.87
2017-10-04T07:13:10.532Z,4.77
2017-10-04T07:15:37.163Z,4.50
2017-10-04T07:18:03.877Z,4.53
2017-10-04T07:20:30.461Z,4.37
2017-10-04T07:22:57.050Z,3.60
2017-10-04T07:25:23.777Z,3.87
2017-10-04T07:27:50.414Z,3.80
2017-10-04T07:30:16.995Z,4.10
2017-10-04T07:32:43.585Z,3.40
2017-10-04T07:35:10.192Z,3.40
2017-10-04T07:37:36.761Z,3.30
2017-10-04T07:40:03.349Z,2.83
2017-10-04T07:42:30.025Z,3.27
2017-10-04T07:44:56.597Z,2.90
2017-10-04T07:47:23.337Z,3.17
2017-10-04T07:49:49.937Z,3.57
2017-10-04T07:52:16.517Z,3.30
2017-10-04T07:54:43.496Z,3.20
2017-10-04T07:57:10.089Z,2.70
2017-10-04T07:59:36.648Z,3.80
2017-10-04T08:02:03.249Z,2.90
2017-10-04T08:04:29.876Z,3.17
2017-10-04T08:06:56.449Z,3.50
2017-10-04T08:09:23.197Z,3.03
2017-10-04T08:11:49.773Z,4.50
2017-10-04T08:14:16.340Z,2.90
2017-10-04T08:16:43.070Z,2.80
2017-10-04T08:19:09.637Z,2.90
2017-10-04T08:21:36.213Z,3.20
2017-10-04T08:24:02.940Z,2.60
2017-10-04T08:26:29.516Z,2.70
2017-10-04T08:28:56.096Z,2.57
2017-10-04T08:31:22.721Z,3.00
2017-10-04T08:33:49.289Z,2.83
2017-10-04T08:36:15.866Z,2.90
2017-10-04T08:38:42.589Z,2.60
2017-10-04T08:41:09.174Z,3.10
2017-10-04T08:43:35.745Z,3.03
2017-10-04T08:46:02.469Z,4.23
2017-10-04T08:48:34.912Z,4.10
2017-10-04T08:51:01.496Z,3.90
2017-10-04T08:53:28.084Z,4.00
2017-10-04T08:56:00.854Z,3.93
2017-10-04T08:58:27.461Z,2.50
2017-10-04T09:00:54.038Z,3.53
2017-10-04T09:03:20.624Z,3.20
2017-10-04T09:05:48.358Z,4.30
2017-10-04T09:08:14.984Z,3.50
2017-10-04T09:10:41.560Z,3.50
2017-10-04T09:13:08.147Z,2.50
2017-10-04T09:15:34.721Z,2.30
2017-10-04T09:18:01.294Z,3.03
2017-10-04T09:20:27.980Z,2.90
2017-10-04T09:22:54.552Z,2.70
2017-10-04T09:25:21.885Z,2.70
2017-10-04T09:27:48.612Z,2.37
2017-10-04T09:30:15.189Z,2.93
2017-10-04T09:32:41.768Z,2.57
2017-10-04T09:35:08.361Z,2.27
2017-10-04T09:37:34.932Z,2.03
2017-10-04T09:40:01.513Z,2.80
2017-10-04T09:42:31.105Z,2.67
2017-10-04T09:44:57.717Z,2.67
2017-10-04T09:47:24.300Z,2.57
2017-10-04T09:49:50.884Z,2.60
2017-10-04T09:52:17.461Z,2.20
2017-10-04T09:54:44.050Z,2.20
2017-10-04T09:57:11.021Z,2.53
2017-10-04T10:02:10.296Z,2.53
2017-10-04T10:04:36.897Z,2.67
2017-10-04T10:07:03.468Z,2.73
2017-10-04T10:09:30.056Z,2.20
2017-10-04T10:11:56.634Z,2.20
2017-10-04T10:14:23.217Z,2.40
2017-10-04T10:16:53.591Z,2.20
2017-10-04T10:19:17.693Z,2.30
2017-10-04T10:21:44.265Z,2.00
2017-10-04T10:24:10.855Z,2.10
2017-10-04T10:26:37.433Z,2.10
2017-10-04T10:29:04.012Z,2.37
2017-10-04T10:31:30.697Z,2.50
2017-10-04T10:33:57.274Z,2.13
2017-10-04T10:36:23.849Z,2.40
2017-10-04T10:38:50.436Z,2.70
2017-10-04T10:41:17.008Z,2.97
2017-10-04T10:43:43.577Z,3.33
2017-10-04T10:46:10.178Z,2.87
2017-10-04T10:48:36.761Z,4.50
2017-10-04T10:51:04.006Z,3.23
2017-10-04T10:53:30.589Z,3.03
2017-10-04T10:55:57.167Z,2.70
2017-10-04T10:58:23.802Z,2.80
2017-10-04T11:00:50.669Z,2.70
2017-10-04T11:03:17.260Z,3.10
2017-10-04T11:05:43.922Z,3.37
2017-10-04T11:08:10.532Z,3.00
2017-10-04T11:10:37.113Z,2.93
2017-10-04T11:13:03.737Z,3.40
2017-10-04T11:15:30.344Z,3.30
2017-10-04T11:17:56.929Z,2.63
2017-10-04T11:20:23.515Z,3.17
2017-10-04T11:22:50.408Z,2.90
2017-10-04T11:25:16.985Z,3.17
2017-10-04T11:27:43.576Z,2.97
2017-10-04T11:30:10.148Z,3.90
2017-10-04T11:32:36.727Z,3.60
2017-10-04T11:35:03.309Z,3.13
2017-10-04T11:37:30.001Z,3.30
2017-10-04T11:39:56.578Z,3.23
2017-10-04T11:42:23.173Z,3.50
2017-10-04T11:44:49.769Z,3.20
2017-10-04T11:47:16.351Z,3.60
2017-10-04T11:49:42.926Z,3.23
2017-10-04T11:52:09.546Z,3.13
2017-10-04T11:54:36.153Z,3.43
2017-10-04T11:57:02.729Z,3.10
2017-10-04T11:59:29.712Z,3.57
2017-10-04T12:01:56.293Z,3.80
2017-10-04T12:04:22.868Z,3.10
2017-10-04T12:06:49.482Z,3.20
2017-10-04T12:09:16.066Z,4.00
2017-10-04T12:11:42.642Z,3.07
2017-10-04T12:14:09.365Z,2.90
2017-10-04T12:16:35.950Z,3.70
2017-10-04T12:19:09.692Z,3.10
2017-10-04T12:21:36.405Z,3.30
2017-10-04T12:24:02.981Z,3.47
2017-10-04T12:26:39.371Z,3.43
2017-10-04T12:29:05.949Z,3.80
2017-10-04T12:31:32.524Z,3.57
2017-10-04T12:33:59.257Z,3.67
2017-10-04T12:36:25.837Z,3.90
2017-10-04T12:38:52.420Z,3.87
2017-10-04T12:41:19.356Z,4.20
2017-10-04T12:43:45.929Z,3.53
2017-10-04T12:46:12.506Z,3.70
2017-10-04T12:48:39.093Z,4.00
2017-10-04T12:51:05.676Z,3.77
2017-10-04T12:53:32.261Z,3.73
2017-10-04T12:55:58.870Z,3.73
2017-10-04T12:58:25.445Z,3.73
2017-10-04T13:00:52.026Z,3.90
2017-10-04T13:03:18.766Z,3.60
2017-10-04T13:05:45.358Z,4.00
2017-10-04T13:08:11.925Z,4.10
2017-10-04T13:10:38.509Z,3.90
2017-10-04T13:13:05.089Z,4.10
2017-10-04T13:15:31.682Z,3.93
2017-10-04T13:17:58.409Z,3.90
2017-10-04T13:20:24.980Z,3.87
2017-10-04T13:22:51.568Z,3.73
2017-10-04T13:25:18.297Z,3.67
2017-10-04T13:27:48.793Z,3.90
2017-10-04T13:30:15.374Z,3.50
2017-10-04T13:32:42.300Z,3.80
2017-10-04T13:35:08.873Z,3.60
2017-10-04T13:37:35.444Z,3.60
2017-10-04T13:40:02.051Z,3.93
2017-10-04T13:42:28.613Z,3.40
2017-10-04T13:44:55.321Z,3.63
2017-10-04T13:47:21.906Z,3.10
2017-10-04T13:49:48.489Z,3.63
2017-10-04T13:52:15.067Z,4.03
2017-10-04T13:54:41.797Z,3.23
2017-10-04T13:57:08.396Z,3.33
2017-10-04T13:59:34.959Z,2.77
2017-10-04T14:02:01.541Z,2.83
2017-10-04T14:04:28.129Z,3.30
2017-10-04T14:06:54.700Z,3.03
2017-10-04T14:09:21.385Z,2.77
2017-10-04T14:11:48.068Z,3.10
2017-10-04T14:14:14.625Z,3.30
2017-10-04T14:16:41.363Z,3.30
2017-10-04T14:19:07.938Z,3.37
2017-10-04T14:21:34.508Z,2.80
2017-10-04T14:24:01.100Z,3.07
2017-10-04T14:26:27.686Z,3.00
2017-10-04T14:28:54.261Z,3.20
2017-10-04T14:31:20.849Z,3.00
2017-10-04T14:33:47.421Z,3.07
2017-10-04T14:36:13.996Z,3.13
2017-10-04T14:38:40.580Z,3.27
2017-10-04T14:41:07.152Z,3.00
2017-10-04T14:43:33.739Z,3.07
2017-10-04T14:46:00.337Z,2.90
2017-10-04T14:48:26.949Z,3.30
2017-10-04T14:50:53.514Z,3.10
2017-10-04T14:53:20.104Z,2.97
2017-10-04T14:55:46.676Z,3.03
2017-10-04T14:58:13.265Z,3.13
2017-10-04T15:00:39.950Z,3.97
2017-10-04T15:03:06.525Z,3.40
2017-10-04T15:05:33.096Z,3.47
2017-10-04T15:07:59.713Z,3.47
2017-10-04T15:10:26.293Z,3.70
2017-10-04T15:12:52.881Z,2.83
2017-10-04T15:15:19.517Z,3.63
2017-10-04T15:17:46.091Z,3.37
2017-10-04T15:20:12.669Z,3.20
2017-10-04T15:22:39.404Z,3.20
2017-10-04T15:25:05.981Z,3.70
2017-10-04T15:27:32.565Z,3.17
2017-10-04T15:29:59.146Z,3.37
2017-10-04T15:32:25.724Z,3.20
2017-10-04T15:34:52.309Z,3.37
2017-10-04T15:37:18.997Z,3.93
2017-10-04T15:39:45.577Z,2.93
2017-10-04T15:42:14.152Z,3.43
2017-10-04T15:44:40.725Z,2.90
2017-10-04T15:47:07.295Z,3.60
2017-10-04T15:49:33.873Z,3.03
2017-10-04T15:52:00.469Z,3.50
2017-10-04T15:54:33.146Z,3.50
2017-10-04T15:57:03.340Z,3.37
2017-10-04T15:59:29.921Z,3.20
2017-10-04T16:01:56.541Z,3.30
2017-10-04T16:04:23.309Z,3.60
2017-10-04T16:06:49.905Z,3.40
2017-10-04T16:09:16.574Z,2.97
2017-10-04T16:11:43.168Z,3.20
2017-10-04T16:14:09.753Z,3.57
2017-10-04T16:16:36.389Z,3.60
2017-10-04T16:19:02.989Z,3.47
2017-10-04T16:21:35.472Z,3.30
2017-10-04T16:24:02.045Z,3.10
2017-10-04T16:26:28.639Z,3.33
2017-10-04T16:28:55.217Z,3.40
2017-10-04T16:31:22.093Z,4.07
2017-10-04T16:33:48.693Z,3.47
2017-10-04T16:36:15.273Z,3.67
2017-10-04T16:38:42.193Z,3.73
2017-10-04T16:41:08.803Z,3.53
2017-10-04T16:43:41.601Z,3.80
2017-10-04T16:46:08.186Z,3.23
2017-10-04T16:48:34.759Z,3.87
2017-10-04T16:51:01.490Z,3.67
2017-10-04T16:53:28.065Z,4.30
2017-10-04T16:55:54.650Z,4.03
2017-10-04T16:58:21.477Z,4.30
2017-10-04T17:00:48.053Z,4.10
2017-10-04T17:03:14.624Z,3.67
2017-10-04T17:05:41.497Z,3.53
2017-10-04T17:08:08.078Z,3.90
2017-10-04T17:13:30.961Z,3.80
2017-10-04T17:15:57.535Z,3.37
2017-10-04T17:18:24.112Z,3.40
2017-10-04T17:20:50.828Z,3.23
2017-10-04T17:23:17.407Z,3.77
2017-10-04T17:25:44.004Z,3.97
2017-10-04T17:28:10.580Z,3.60
2017-10-04T17:30:37.159Z,3.90
2017-10-04T17:33:03.750Z,3.67
2017-10-04T17:35:37.952Z,4.07
2017-10-04T17:38:04.938Z,3.60
2017-10-04T17:40:31.504Z,3.97
2017-10-04T17:42:58.083Z,3.60
2017-10-04T17:45:24.658Z,3.67
2017-10-04T17:47:51.247Z,4.30
2017-10-04T17:50:17.828Z,3.60
2017-10-04T17:52:44.398Z,3.47
2017-10-04T17:55:10.987Z,3.60
2017-10-04T17:57:37.569Z,3.70
2017-10-04T18:00:12.727Z,4.30
2017-10-04T18:02:39.292Z,3.90
2017-10-04T18:05:05.898Z,4.47
2017-10-04T18:07:32.472Z,5.00
2017-10-04T18:09:59.052Z,4.00
2017-10-04T18:12:25.624Z,4.17
2017-10-04T18:14:52.201Z,4.20
2017-10-04T18:17:18.776Z,4.67
2017-10-04T18:19:45.352Z,4.20
2017-10-04T18:22:11.941Z,4.27
2017-10-04T18:24:38.515Z,4.10
2017-10-04T18:27:05.401Z,3.90
2017-10-04T18:29:31.985Z,4.37
2017-10-04T18:31:58.558Z,4.23
2017-10-04T18:34:25.131Z,4.57
2017-10-04T18:36:51.749Z,4.40
2017-10-04T18:39:18.332Z,4.33
2017-10-04T18:41:44.916Z,3.80
2017-10-04T18:44:11.475Z,4.00
2017-10-04T18:46:38.044Z,4.00
2017-10-04T18:49:04.898Z,4.40
2017-10-04T18:51:31.536Z,4.30
2017-10-04T18:53:58.114Z,3.77
2017-10-04T18:56:24.692Z,4.50
2017-10-04T18:58:51.310Z,4.23
2017-10-04T19:01:17.876Z,4.40
2017-10-04T19:03:44.472Z,4.50
2017-10-04T19:06:11.043Z,4.70
2017-10-04T19:08:37.616Z,4.90
2017-10-04T19:11:10.496Z,4.43
2017-10-04T19:13:37.093Z,3.83
2017-10-04T19:16:03.647Z,4.83
2017-10-04T19:18:30.229Z,5.07
2017-10-04T19:21:02.713Z,4.80
2017-10-04T19:23:30.709Z,4.87
2017-10-04T19:25:57.293Z,4.10
2017-10-04T19:28:23.880Z,4.87
2017-10-04T19:30:50.444Z,5.00
2017-10-04T19:33:17.012Z,4.63
2017-10-04T19:35:43.603Z,4.47
2017-10-04T19:38:10.592Z,4.60
2017-10-04T19:40:43.148Z,5.40
2017-10-04T19:43:09.721Z,4.67
2017-10-04T19:45:36.292Z,5.30
2017-10-04T19:48:02.868Z,4.57
2017-10-04T19:50:29.445Z,5.40
2017-10-04T19:52:56.106Z,5.60
2017-10-04T19:55:22.684Z,4.80
2017-10-04T19:57:49.277Z,5.00
2017-10-04T20:00:15.864Z,5.70
2017-10-04T20:02:42.440Z,5.83
2017-10-04T20:05:09.068Z,6.00
2017-10-04T20:07:35.648Z,5.70
2017-10-04T20:10:02.372Z,5.57
2017-10-04T20:12:28.968Z,5.00
2017-10-04T20:14:55.537Z,5.83
2017-10-04T20:17:22.128Z,5.53
2017-10-04T20:19:48.725Z,5.30
2017-10-04T20:22:15.303Z,5.63
2017-10-04T20:24:41.877Z,5.53
2017-10-04T20:27:08.619Z,5.00
2017-10-04T20:29:35.184Z,5.47
2017-10-04T20:32:02.612Z,5.37
2017-10-04T20:34:35.795Z,4.80
2017-10-04T20:37:02.368Z,5.27
2017-10-04T20:39:35.272Z,5.00
2017-10-04T20:42:05.348Z,5.07
2017-10-04T20:44:34.952Z,5.50
2017-10-04T20:47:01.532Z,4.60
2017-10-04T20:49:28.104Z,4.70
2017-10-04T20:51:54.679Z,4.30
2017-10-04T20:54:21.260Z,4.20
2017-10-04T20:56:47.837Z,4.87
2017-10-04T20:59:14.409Z,4.20
2017-10-04T21:01:41.132Z,4.07
2017-10-04T21:04:07.705Z,4.40
2017-10-04T21:06:34.300Z,4.10
2017-10-04T21:09:00.871Z,3.90
2017-10-04T21:11:27.441Z,4.27
2017-10-04T21:13:54.033Z,4.00
2017-10-04T21:16:20.603Z,4.40
2017-10-04T21:18:47.180Z,3.93
2017-10-04T21:21:13.753Z,3.97
2017-10-04T21:23:40.335Z,3.80
2017-10-04T21:26:06.908Z,3.80
2017-10-04T21:28:33.652Z,3.40
2017-10-04T21:31:00.233Z,3.40
2017-10-04T21:33:26.815Z,3.53
2017-10-04T21:35:53.424Z,3.73
2017-10-04T21:38:20.027Z,3.60
2017-10-04T21:40:46.620Z,3.60
2017-10-04T21:43:13.249Z,3.67
2017-10-04T21:45:39.907Z,3.23
2017-10-04T21:48:06.479Z,3.50
2017-10-04T21:50:33.052Z,2.90
2017-10-04T21:52:59.636Z,2.80
2017-10-04T21:55:26.216Z,2.60
2017-10-04T21:57:52.887Z,3.07
2017-10-04T22:00:19.508Z,3.40
2017-10-04T22:02:46.081Z,3.30
2017-10-04T22:05:12.660Z,3.70
2017-10-04T22:07:39.232Z,3.70
2017-10-04T22:10:05.836Z,3.20
2017-10-04T22:12:32.404Z,3.83
2017-10-04T22:14:58.988Z,4.50
2017-10-04T22:17:25.564Z,3.90
2017-10-04T22:19:52.137Z,4.47
2017-10-04T22:22:18.711Z,3.57
2017-10-04T22:24:45.296Z,3.70
2017-10-04T22:27:11.888Z,4.17
2017-10-04T22:29:38.500Z,4.40
2017-10-04T22:32:05.069Z,4.40
2017-10-04T22:34:31.644Z,3.93
2017-10-04T22:36:58.234Z,4.07
2017-10-04T22:39:24.796Z,3.73
2017-10-04T22:41:51.372Z,3.47
2017-10-04T22:44:17.952Z,3.87
2017-10-04T22:46:44.876Z,3.60
2017-10-04T22:49:11.445Z,3.90
2017-10-04T22:51:38.013Z,3.40
2017-10-04T22:54:04.605Z,3.70
2017-10-04T22:56:31.168Z,3.90
2017-10-04T22:58:57.744Z,3.50
2017-10-04T23:01:24.316Z,4.17
2017-10-04T23:03:50.892Z,3.90
2017-10-04T23:06:17.465Z,3.60
2017-10-04T23:08:44.119Z,3.67
2017-10-04T23:11:10.688Z,3.30
2017-10-04T23:13:37.417Z,3.53
2017-10-04T23:16:03.995Z,3.50
2017-10-04T23:18:30.556Z,3.60
2017-10-04T23:20:57.136Z,3.23
2017-10-04T23:23:23.703Z,3.10
2017-10-04T23:25:50.284Z,3.33
2017-10-04T23:28:16.849Z,3.50
2017-10-04T23:30:43.743Z,3.30
2017-10-04T23:33:10.297Z,2.97
2017-10-04T23:35:36.864Z,3.10
2017-10-04T23:38:03.442Z,3.07
2017-10-04T23:40:30.016Z,3.77
2017-10-04T23:42:56.589Z,3.70
2017-10-04T23:45:23.164Z,3.20
2017-10-04T23:47:49.776Z,3.77
2017-10-04T23:50:16.376Z,3.63
2017-10-04T23:52:42.947Z,4.30
2017-10-04T23:55:09.535Z,3.80
2017-10-04T23:57:36.117Z,2.93
